sensor_id;sensor_type;location;lat;lon;timestamp;pressure;altitude;pressure_sealevel;temperature;humidity
21588;BME280;10956;48.878;13.316;2023-02-22T00:00:11;94211.31;;;6.64;100.00
21588;BME280;10956;48.878;13.316;2023-02-22T00:02:47;94213.13;;;6.63;100.00
21588;BME280;10956;48.878;13.316;2023-02-22T00:05:13;94214.16;;;6.62;100.00
21588;BME280;10956;48.878;13.316;2023-02-22T00:07:42;94210.53;;;6.63;100.00
21588;BME280;10956;48.878;13.316;2023-02-22T00:10:09;94205.75;;;6.60;100.00
21588;BME280;10956;48.878;13.316;2023-02-22T00:12:41;94201.00;;;6.57;100.00
21588;BME280;10956;48.878;13.316;2023-02-22T00:15:08;94210.38;;;6.53;100.00
21588;BME280;10956;48.878;13.316;2023-02-22T00:17:34;94205.13;;;6.53;100.00
21588;BME280;10956;48.878;13.316;2023-02-22T00:20:00;94209.59;;;6.53;100.00
21588;BME280;10956;48.878;13.316;2023-02-22T00:22:26;94198.31;;;6.52;100.00
21588;BME280;10956;48.878;13.316;2023-02-22T00:24:51;94207.03;;;6.58;100.00
21588;BME280;10956;48.878;13.316;2023-02-22T00:27:16;94205.75;;;6.60;100.00
21588;BME280;10956;48.878;13.316;2023-02-22T00:29:44;94202.13;;;6.61;100.00
21588;BME280;10956;48.878;13.316;2023-02-22T00:32:10;94205.22;;;6.58;100.00
21588;BME280;10956;48.878;13.316;2023-02-22T00:34:35;94202.53;;;6.53;100.00
21588;BME280;10956;48.878;13.316;2023-02-22T00:37:01;94200.16;;;6.52;100.00
21588;BME280;10956;48.878;13.316;2023-02-22T00:39:28;94193.09;;;6.52;100.00
21588;BME280;10956;48.878;13.316;2023-02-22T00:41:54;94193.09;;;6.52;100.00
21588;BME280;10956;48.878;13.316;2023-02-22T00:44:20;94193.09;;;6.52;100.00
21588;BME280;10956;48.878;13.316;2023-02-22T00:46:46;94193.56;;;6.49;100.00
21588;BME280;10956;48.878;13.316;2023-02-22T00:49:11;94189.75;;;6.40;100.00
21588;BME280;10956;48.878;13.316;2023-02-22T00:51:37;94194.38;;;6.33;100.00
21588;BME280;10956;48.878;13.316;2023-02-22T00:54:02;94197.38;;;6.25;100.00
21588;BME280;10956;48.878;13.316;2023-02-22T00:56:31;94192.63;;;6.22;100.00
21588;BME280;10956;48.878;13.316;2023-02-22T00:58:58;94193.59;;;6.15;100.00
21588;BME280;10956;48.878;13.316;2023-02-22T01:01:25;94190.09;;;6.10;100.00
21588;BME280;10956;48.878;13.316;2023-02-22T01:03:51;94194.84;;;6.13;100.00
21588;BME280;10956;48.878;13.316;2023-02-22T01:06:16;94184.94;;;5.98;100.00
21588;BME280;10956;48.878;13.316;2023-02-22T01:08:46;94184.66;;;5.83;100.00
21588;BME280;10956;48.878;13.316;2023-02-22T01:11:12;94184.66;;;5.83;100.00
21588;BME280;10956;48.878;13.316;2023-02-22T01:13:39;94176.56;;;5.84;100.00
21588;BME280;10956;48.878;13.316;2023-02-22T01:16:06;94182.59;;;5.85;100.00
21588;BME280;10956;48.878;13.316;2023-02-22T01:18:35;94182.13;;;5.88;100.00
21588;BME280;10956;48.878;13.316;2023-02-22T01:21:01;94181.22;;;5.94;100.00
21588;BME280;10956;48.878;13.316;2023-02-22T01:23:27;94183.91;;;5.99;100.00
21588;BME280;10956;48.878;13.316;2023-02-22T01:25:52;94181.38;;;6.04;100.00
21588;BME280;10956;48.878;13.316;2023-02-22T01:28:18;94178.19;;;6.02;100.00
21588;BME280;10956;48.878;13.316;2023-02-22T01:30:43;94172.19;;;6.02;100.00
21588;BME280;10956;48.878;13.316;2023-02-22T01:33:09;94174.00;;;6.01;100.00
21588;BME280;10956;48.878;13.316;2023-02-22T01:35:38;94174.00;;;6.01;100.00
21588;BME280;10956;48.878;13.316;2023-02-22T01:38:07;94175.97;;;5.94;100.00
21588;BME280;10956;48.878;13.316;2023-02-22T01:40:37;94166.44;;;5.88;100.00
21588;BME280;10956;48.878;13.316;2023-02-22T01:43:13;94170.66;;;5.89;100.00
21588;BME280;10956;48.878;13.316;2023-02-22T01:50:58;94161.19;;;5.88;100.00
21588;BME280;10956;48.878;13.316;2023-02-22T01:53:29;94160.56;;;5.81;100.00
21588;BME280;10956;48.878;13.316;2023-02-22T01:55:58;94157.88;;;5.76;100.00
21588;BME280;10956;48.878;13.316;2023-02-22T01:58:25;94161.97;;;5.72;100.00
21588;BME280;10956;48.878;13.316;2023-02-22T02:00:51;94157.22;;;5.69;100.00
21588;BME280;10956;48.878;13.316;2023-02-22T02:03:21;94154.53;;;5.64;100.00
21588;BME280;10956;48.878;13.316;2023-02-22T02:05:49;94149.22;;;5.59;100.00
21588;BME280;10956;48.878;13.316;2023-02-22T02:08:24;94148.56;;;5.51;100.00
21588;BME280;10956;48.878;13.316;2023-02-22T02:10:54;94152.19;;;5.50;100.00
21588;BME280;10956;48.878;13.316;2023-02-22T02:13:20;94137.53;;;5.49;100.00
21588;BME280;10956;48.878;13.316;2023-02-22T02:15:46;94136.28;;;5.52;100.00
21588;BME280;10956;48.878;13.316;2023-02-22T02:18:14;94134.22;;;5.54;100.00
21588;BME280;10956;48.878;13.316;2023-02-22T02:24:01;94131.44;;;5.44;100.00
21588;BME280;10956;48.878;13.316;2023-02-22T02:34:53;94121.03;;;5.32;100.00
21588;BME280;10956;48.878;13.316;2023-02-22T02:37:32;94112.66;;;5.30;100.00
21588;BME280;10956;48.878;13.316;2023-02-22T02:46:00;94114.06;;;5.21;100.00
21588;BME280;10956;48.878;13.316;2023-02-22T02:48:30;94116.09;;;5.19;100.00
21588;BME280;10956;48.878;13.316;2023-02-22T02:50:59;94117.13;;;5.18;100.00
21588;BME280;10956;48.878;13.316;2023-02-22T02:53:35;94117.38;;;5.16;100.00
21588;BME280;10956;48.878;13.316;2023-02-22T02:56:02;94114.97;;;5.15;100.00
21588;BME280;10956;48.878;13.316;2023-02-22T02:58:28;94108.19;;;5.14;100.00
21588;BME280;10956;48.878;13.316;2023-02-22T03:00:56;94104.06;;;5.18;100.00
21588;BME280;10956;48.878;13.316;2023-02-22T03:03:44;94103.75;;;5.14;100.00
21588;BME280;10956;48.878;13.316;2023-02-22T03:06:37;94107.63;;;5.12;100.00
21588;BME280;10956;48.878;13.316;2023-02-22T03:09:30;94105.00;;;5.12;100.00
21588;BME280;10956;48.878;13.316;2023-02-22T03:17:27;94105.38;;;5.04;100.00
21588;BME280;10956;48.878;13.316;2023-02-22T03:20:00;94094.84;;;4.99;100.00
21588;BME280;10956;48.878;13.316;2023-02-22T03:22:36;94104.16;;;4.95;100.00
21588;BME280;10956;48.878;13.316;2023-02-22T03:25:14;94096.22;;;4.90;100.00
21588;BME280;10956;48.878;13.316;2023-02-22T03:27:44;94095.69;;;4.88;100.00
21588;BME280;10956;48.878;13.316;2023-02-22T03:30:34;94095.13;;;4.85;100.00
21588;BME280;10956;48.878;13.316;2023-02-22T03:33:05;94097.16;;;4.83;100.00
21588;BME280;10956;48.878;13.316;2023-02-22T03:35:36;94091.16;;;4.83;100.00
21588;BME280;10956;48.878;13.316;2023-02-22T03:38:06;94095.13;;;4.85;100.00
21588;BME280;10956;48.878;13.316;2023-02-22T03:40:37;94090.69;;;4.86;100.00
21588;BME280;10956;48.878;13.316;2023-02-22T03:43:09;94099.53;;;4.85;100.00
21588;BME280;10956;48.878;13.316;2023-02-22T03:45:37;94090.91;;;4.84;100.00
21588;BME280;10956;48.878;13.316;2023-02-22T03:48:26;94095.34;;;4.84;100.00
21588;BME280;10956;48.878;13.316;2023-02-22T03:50:54;94096.69;;;4.86;100.00
21588;BME280;10956;48.878;13.316;2023-02-22T03:53:22;94094.41;;;4.90;100.00
21588;BME280;10956;48.878;13.316;2023-02-22T03:55:49;94095.22;;;4.91;100.00
21588;BME280;10956;48.878;13.316;2023-02-22T03:58:19;94089.75;;;4.92;100.00
21588;BME280;10956;48.878;13.316;2023-02-22T04:00:46;94095.44;;;4.89;100.00
21588;BME280;10956;48.878;13.316;2023-02-22T04:03:18;94091.94;;;4.83;100.00
21588;BME280;10956;48.878;13.316;2023-02-22T04:05:44;94090.34;;;4.82;100.00
21588;BME280;10956;48.878;13.316;2023-02-22T04:08:09;94087.66;;;4.77;100.00
21588;BME280;10956;48.878;13.316;2023-02-22T04:10:34;94083.69;;;4.75;100.00
21588;BME280;10956;48.878;13.316;2023-02-22T04:13:02;94087.00;;;4.70;100.00
21588;BME280;10956;48.878;13.316;2023-02-22T04:15:27;94082.22;;;4.67;100.00
21588;BME280;10956;48.878;13.316;2023-02-22T04:17:53;94090.06;;;4.67;100.00
21588;BME280;10956;48.878;13.316;2023-02-22T04:20:18;94084.59;;;4.69;100.00
21588;BME280;10956;48.878;13.316;2023-02-22T04:22:44;94084.94;;;4.72;100.00
21588;BME280;10956;48.878;13.316;2023-02-22T04:25:11;94079.72;;;4.72;100.00
21588;BME280;10956;48.878;13.316;2023-02-22T04:27:36;94079.84;;;4.66;100.00
21588;BME280;10956;48.878;13.316;2023-02-22T04:30:02;94080.31;;;4.63;100.00
21588;BME280;10956;48.878;13.316;2023-02-22T04:32:27;94078.06;;;4.54;100.00
21588;BME280;10956;48.878;13.316;2023-02-22T04:34:53;94077.06;;;4.44;100.00
21588;BME280;10956;48.878;13.316;2023-02-22T04:37:18;94078.00;;;4.38;100.00
21588;BME280;10956;48.878;13.316;2023-02-22T04:39:44;94069.59;;;4.36;100.00
21588;BME280;10956;48.878;13.316;2023-02-22T04:42:09;94071.41;;;4.35;100.00
21588;BME280;10956;48.878;13.316;2023-02-22T04:44:34;94067.00;;;4.36;100.00
21588;BME280;10956;48.878;13.316;2023-02-22T04:47:00;94065.41;;;4.35;100.00
21588;BME280;10956;48.878;13.316;2023-02-22T04:49:25;94060.19;;;4.35;100.00
21588;BME280;10956;48.878;13.316;2023-02-22T04:51:50;94064.38;;;4.36;100.00
21588;BME280;10956;48.878;13.316;2023-02-22T04:54:16;94060.19;;;4.35;100.00
21588;BME280;10956;48.878;13.316;2023-02-22T04:56:43;94058.03;;;4.32;100.00
21588;BME280;10956;48.878;13.316;2023-02-22T04:59:08;94056.44;;;4.31;100.00
21588;BME280;10956;48.878;13.316;2023-02-22T05:01:35;94049.66;;;4.30;100.00
21588;BME280;10956;48.878;13.316;2023-02-22T05:04:05;94051.69;;;4.28;100.00
21588;BME280;10956;48.878;13.316;2023-02-22T05:06:31;94055.31;;;4.27;100.00
21588;BME280;10956;48.878;13.316;2023-02-22T05:08:56;94039.69;;;4.27;100.00
21588;BME280;10956;48.878;13.316;2023-02-22T05:11:21;94048.53;;;4.26;100.00
21588;BME280;10956;48.878;13.316;2023-02-22T05:13:47;94046.94;;;4.25;100.00
21588;BME280;10956;48.878;13.316;2023-02-22T05:16:13;94043.31;;;4.26;100.00
21588;BME280;10956;48.878;13.316;2023-02-22T05:18:38;94036.50;;;4.25;100.00
21588;BME280;10956;48.878;13.316;2023-02-22T05:21:04;94045.91;;;4.26;100.00
21588;BME280;10956;48.878;13.316;2023-02-22T05:23:31;94036.50;;;4.25;100.00
21588;BME280;10956;48.878;13.316;2023-02-22T05:25:57;94043.31;;;4.26;100.00
21588;BME280;10956;48.878;13.316;2023-02-22T05:28:22;94043.31;;;4.26;100.00
21588;BME280;10956;48.878;13.316;2023-02-22T05:30:48;94040.13;;;4.24;100.00
21588;BME280;10956;48.878;13.316;2023-02-22T05:33:13;94043.75;;;4.22;100.00
21588;BME280;10956;48.878;13.316;2023-02-22T05:35:39;94040.13;;;4.24;100.00
21588;BME280;10956;48.878;13.316;2023-02-22T05:38:05;94043.31;;;4.26;100.00
21588;BME280;10956;48.878;13.316;2023-02-22T05:40:31;94038.88;;;4.26;100.00
21588;BME280;10956;48.878;13.316;2023-02-22T05:42:57;94038.09;;;4.26;100.00
21588;BME280;10956;48.878;13.316;2023-02-22T05:45:25;94044.56;;;4.23;100.00
21588;BME280;10956;48.878;13.316;2023-02-22T05:47:51;94041.72;;;4.25;100.00
21588;BME280;10956;48.878;13.316;2023-02-22T05:50:18;94048.19;;;4.22;100.00
21588;BME280;10956;48.878;13.316;2023-02-22T05:52:44;94040.59;;;4.20;100.00
21588;BME280;10956;48.878;13.316;2023-02-22T05:55:12;94046.50;;;4.16;100.00
21588;BME280;10956;48.878;13.316;2023-02-22T05:57:38;94050.13;;;4.15;100.00
21588;BME280;10956;48.878;13.316;2023-02-22T06:00:05;94052.50;;;4.16;100.00
21588;BME280;10956;48.878;13.316;2023-02-22T06:02:31;94049.09;;;4.16;100.00
21588;BME280;10956;48.878;13.316;2023-02-22T06:04:57;94055.91;;;4.17;100.00
21588;BME280;10956;48.878;13.316;2023-02-22T06:07:22;94055.91;;;4.17;100.00
21588;BME280;10956;48.878;13.316;2023-02-22T06:09:47;94055.13;;;4.16;100.00
21588;BME280;10956;48.878;13.316;2023-02-22T06:12:13;94052.50;;;4.16;100.00
21588;BME280;10956;48.878;13.316;2023-02-22T06:14:38;94052.06;;;4.19;100.00
21588;BME280;10956;48.878;13.316;2023-02-22T06:17:06;94059.41;;;4.22;100.00
21588;BME280;10956;48.878;13.316;2023-02-22T06:19:32;94057.72;;;4.16;100.00
21588;BME280;10956;48.878;13.316;2023-02-22T06:21:57;94059.88;;;4.19;100.00
21588;BME280;10956;48.878;13.316;2023-02-22T06:24:24;94064.88;;;4.21;100.00
21588;BME280;10956;48.878;13.316;2023-02-22T06:26:54;94064.63;;;4.22;100.00
21588;BME280;10956;48.878;13.316;2023-02-22T06:29:21;94072.56;;;4.28;100.00
21588;BME280;10956;48.878;13.316;2023-02-22T06:31:47;94063.25;;;4.32;100.00
21588;BME280;10956;48.878;13.316;2023-02-22T06:34:13;94068.00;;;4.35;100.00
21588;BME280;10956;48.878;13.316;2023-02-22T06:36:38;94069.13;;;4.39;100.00
21588;BME280;10956;48.878;13.316;2023-02-22T06:39:03;94069.69;;;4.41;100.00
21588;BME280;10956;48.878;13.316;2023-02-22T06:41:29;94063.94;;;4.39;100.00
21588;BME280;10956;48.878;13.316;2023-02-22T06:43:54;94072.53;;;4.39;100.00
21588;BME280;10956;48.878;13.316;2023-02-22T06:46:20;94070.25;;;4.43;100.00
21588;BME280;10956;48.878;13.316;2023-02-22T06:48:46;94071.84;;;4.44;100.00
21588;BME280;10956;48.878;13.316;2023-02-22T06:51:11;94066.19;;;4.47;100.00
21588;BME280;10956;48.878;13.316;2023-02-22T06:53:36;94066.84;;;4.54;100.00
21588;BME280;10956;48.878;13.316;2023-02-22T06:56:02;94072.72;;;4.61;100.00
21588;BME280;10956;48.878;13.316;2023-02-22T06:58:28;94071.56;;;4.69;100.00
21588;BME280;10956;48.878;13.316;2023-02-22T07:00:53;94074.03;;;4.75;100.00
21588;BME280;10956;48.878;13.316;2023-02-22T07:03:19;94073.25;;;4.75;100.00
21588;BME280;10956;48.878;13.316;2023-02-22T07:05:45;94074.59;;;4.77;100.00
21588;BME280;10956;48.878;13.316;2023-02-22T07:08:11;94077.88;;;4.84;100.00
21588;BME280;10956;48.878;13.316;2023-02-22T07:10:37;94072.50;;;4.91;100.00
21588;BME280;10956;48.878;13.316;2023-02-22T07:13:05;94073.94;;;4.99;100.00
21588;BME280;10956;48.878;13.316;2023-02-22T07:15:32;94081.16;;;5.08;100.00
21588;BME280;10956;48.878;13.316;2023-02-22T07:17:58;94083.97;;;5.18;100.00
21588;BME280;10956;48.878;13.316;2023-02-22T07:20:26;94084.94;;;5.29;100.00
21588;BME280;10956;48.878;13.316;2023-02-22T07:22:52;94085.09;;;5.39;100.00
21588;BME280;10956;48.878;13.316;2023-02-22T07:25:18;94074.50;;;5.46;100.00
21588;BME280;10956;48.878;13.316;2023-02-22T07:27:44;94077.66;;;5.48;100.00
21588;BME280;10956;48.878;13.316;2023-02-22T07:32:44;94068.00;;;5.48;100.00
21588;BME280;10956;48.878;13.316;2023-02-22T07:35:21;94077.50;;;5.55;100.00
21588;BME280;10956;48.878;13.316;2023-02-22T07:37:47;94075.47;;;5.57;100.00
21588;BME280;10956;48.878;13.316;2023-02-22T07:40:14;94072.28;;;5.55;100.00
21588;BME280;10956;48.878;13.316;2023-02-22T07:42:53;94071.34;;;5.61;100.00
21588;BME280;10956;48.878;13.316;2023-02-22T07:45:20;94066.28;;;5.71;100.00
21588;BME280;10956;48.878;13.316;2023-02-22T07:47:46;94075.28;;;5.80;100.00
21588;BME280;10956;48.878;13.316;2023-02-22T07:50:15;94082.75;;;5.88;100.00
21588;BME280;10956;48.878;13.316;2023-02-22T07:52:45;94081.34;;;5.97;100.00
21588;BME280;10956;48.878;13.316;2023-02-22T07:55:13;94077.03;;;6.08;100.00
21588;BME280;10956;48.878;13.316;2023-02-22T07:57:38;94078.47;;;6.15;100.00
21588;BME280;10956;48.878;13.316;2023-02-22T08:00:04;94077.50;;;6.22;100.00
21588;BME280;10956;48.878;13.316;2023-02-22T08:02:29;94067.34;;;6.25;100.00
21588;BME280;10956;48.878;13.316;2023-02-22T08:04:55;94069.53;;;6.33;100.00
21588;BME280;10956;48.878;13.316;2023-02-22T08:07:20;94065.59;;;6.31;100.00
21588;BME280;10956;48.878;13.316;2023-02-22T08:09:46;94067.97;;;6.32;100.00
21588;BME280;10956;48.878;13.316;2023-02-22T08:12:11;94073.97;;;6.33;100.00
21588;BME280;10956;48.878;13.316;2023-02-22T08:14:36;94061.69;;;6.33;100.00
21588;BME280;10956;48.878;13.316;2023-02-22T08:17:02;94060.97;;;6.38;100.00
21588;BME280;10956;48.878;13.316;2023-02-22T08:19:27;94058.41;;;6.43;100.00
21588;BME280;10956;48.878;13.316;2023-02-22T08:21:52;94061.56;;;6.45;100.00
21588;BME280;10956;48.878;13.316;2023-02-22T08:24:18;94060.59;;;6.51;100.00
21588;BME280;10956;48.878;13.316;2023-02-22T08:26:44;94056.47;;;6.55;100.00
21588;BME280;10956;48.878;13.316;2023-02-22T08:29:10;94059.69;;;6.62;100.00
21588;BME280;10956;48.878;13.316;2023-02-22T08:31:36;94053.00;;;6.71;100.00
21588;BME280;10956;48.878;13.316;2023-02-22T08:34:01;94059.88;;;6.77;100.00
21588;BME280;10956;48.878;13.316;2023-02-22T08:36:27;94056.81;;;6.86;100.00
21588;BME280;10956;48.878;13.316;2023-02-22T08:38:53;94050.66;;;6.97;100.00
21588;BME280;10956;48.878;13.316;2023-02-22T08:41:19;94055.44;;;7.05;100.00
21588;BME280;10956;48.878;13.316;2023-02-22T08:43:44;94049.22;;;7.11;100.00
21588;BME280;10956;48.878;13.316;2023-02-22T08:46:09;94051.41;;;7.19;100.00
21588;BME280;10956;48.878;13.316;2023-02-22T08:48:35;94045.69;;;7.27;100.00
21588;BME280;10956;48.878;13.316;2023-02-22T08:51:00;94043.66;;;7.34;100.00
21588;BME280;10956;48.878;13.316;2023-02-22T08:53:26;94038.47;;;7.39;100.00
21588;BME280;10956;48.878;13.316;2023-02-22T08:55:52;94043.25;;;7.48;100.00
21588;BME280;10956;48.878;13.316;2023-02-22T08:58:17;94042.25;;;7.54;100.00
21588;BME280;10956;48.878;13.316;2023-02-22T09:00:43;94032.34;;;7.61;100.00
21588;BME280;10956;48.878;13.316;2023-02-22T09:03:11;94041.56;;;7.63;100.00
21588;BME280;10956;48.878;13.316;2023-02-22T09:05:38;94036.09;;;7.70;100.00
21588;BME280;10956;48.878;13.316;2023-02-22T09:08:04;94036.66;;;7.77;100.00
21588;BME280;10956;48.878;13.316;2023-02-22T09:10:31;94041.94;;;7.82;100.00
21588;BME280;10956;48.878;13.316;2023-02-22T09:12:57;94042.00;;;7.87;100.00
21588;BME280;10956;48.878;13.316;2023-02-22T09:15:25;94035.44;;;7.90;100.00
21588;BME280;10956;48.878;13.316;2023-02-22T09:17:52;94037.31;;;7.94;100.00
21588;BME280;10956;48.878;13.316;2023-02-22T09:20:18;94038.09;;;7.95;100.00
21588;BME280;10956;48.878;13.316;2023-02-22T09:22:45;94033.13;;;7.98;100.00
21588;BME280;10956;48.878;13.316;2023-02-22T09:25:11;94035.25;;;8.01;100.00
21588;BME280;10956;48.878;13.316;2023-02-22T09:27:36;94035.00;;;8.03;100.00
21588;BME280;10956;48.878;13.316;2023-02-22T09:30:03;94033.16;;;8.03;100.00
21588;BME280;10956;48.878;13.316;2023-02-22T09:32:28;94036.88;;;8.07;100.00
21588;BME280;10956;48.878;13.316;2023-02-22T09:34:54;94036.91;;;8.13;100.00
21588;BME280;10956;48.878;13.316;2023-02-22T09:37:20;94037.44;;;8.15;100.00
21588;BME280;10956;48.878;13.316;2023-02-22T09:39:45;94030.09;;;8.17;100.00
21588;BME280;10956;48.878;13.316;2023-02-22T09:47:33;94013.34;;;8.23;100.00
21588;BME280;10956;48.878;13.316;2023-02-22T09:52:39;94011.59;;;8.38;100.00
21588;BME280;10956;48.878;13.316;2023-02-22T09:57:42;94010.84;;;8.48;100.00
21588;BME280;10956;48.878;13.316;2023-02-22T10:00:16;94004.06;;;8.57;100.00
21588;BME280;10956;48.878;13.316;2023-02-22T10:03:08;93989.91;;;8.68;100.00
21588;BME280;10956;48.878;13.316;2023-02-22T10:05:38;93992.56;;;8.79;100.00
21588;BME280;10956;48.878;13.316;2023-02-22T10:08:14;93993.91;;;8.86;100.00
21588;BME280;10956;48.878;13.316;2023-02-22T10:10:42;93988.91;;;8.95;100.00
21588;BME280;10956;48.878;13.316;2023-02-22T10:13:30;93989.47;;;9.07;100.00
21588;BME280;10956;48.878;13.316;2023-02-22T10:16:33;93991.59;;;9.20;100.00
21588;BME280;10956;48.878;13.316;2023-02-22T10:24:31;93978.97;;;9.32;100.00
21588;BME280;10956;48.878;13.316;2023-02-22T10:27:04;93980.03;;;9.26;100.00
21588;BME280;10956;48.878;13.316;2023-02-22T10:30:22;93977.41;;;9.31;100.00
21588;BME280;10956;48.878;13.316;2023-02-22T10:32:58;93971.34;;;9.41;100.00
21588;BME280;10956;48.878;13.316;2023-02-22T10:35:28;93967.41;;;9.49;100.00
21588;BME280;10956;48.878;13.316;2023-02-22T10:38:18;93965.31;;;9.51;100.00
21588;BME280;10956;48.878;13.316;2023-02-22T10:40:48;93962.16;;;9.49;100.00
21588;BME280;10956;48.878;13.316;2023-02-22T10:43:15;93971.09;;;9.58;100.00
21588;BME280;10956;48.878;13.316;2023-02-22T10:45:40;93955.81;;;9.65;100.00
21588;BME280;10956;48.878;13.316;2023-02-22T10:48:10;93960.00;;;9.76;100.00
21588;BME280;10956;48.878;13.316;2023-02-22T10:50:39;93954.22;;;9.74;100.00
21588;BME280;10956;48.878;13.316;2023-02-22T10:53:06;93953.69;;;9.77;100.00
21588;BME280;10956;48.878;13.316;2023-02-22T10:55:32;93954.75;;;9.81;100.00
21588;BME280;10956;48.878;13.316;2023-02-22T10:58:02;93947.91;;;9.80;100.00
21588;BME280;10956;48.878;13.316;2023-02-22T11:00:37;93954.75;;;9.81;100.00
21588;BME280;10956;48.878;13.316;2023-02-22T11:03:24;93951.31;;;9.86;100.00
21588;BME280;10956;48.878;13.316;2023-02-22T11:05:49;93955.25;;;9.88;100.00
21588;BME280;10956;48.878;13.316;2023-02-22T11:11:19;93938.94;;;9.91;100.00
21588;BME280;10956;48.878;13.316;2023-02-22T11:13:55;93928.41;;;9.86;100.00
21588;BME280;10956;48.878;13.316;2023-02-22T11:16:35;93928.41;;;9.86;100.00
21588;BME280;10956;48.878;13.316;2023-02-22T11:19:18;93925.78;;;9.86;100.00
21588;BME280;10956;48.878;13.316;2023-02-22T11:21:49;93929.97;;;9.97;100.00
21588;BME280;10956;48.878;13.316;2023-02-22T11:24:17;93921.00;;;10.03;100.00
21588;BME280;10956;48.878;13.316;2023-02-22T11:26:53;93917.06;;;10.01;100.00
21588;BME280;10956;48.878;13.316;2023-02-22T11:29:30;93920.16;;;10.13;100.00
21588;BME280;10956;48.878;13.316;2023-02-22T11:31:57;93917.78;;;10.22;100.00
21588;BME280;10956;48.878;13.316;2023-02-22T11:34:37;93909.38;;;10.20;100.00
21588;BME280;10956;48.878;13.316;2023-02-22T11:37:32;93901.72;;;10.23;100.00
21588;BME280;10956;48.878;13.316;2023-02-22T11:42:44;93895.56;;;10.43;100.00
21588;BME280;10956;48.878;13.316;2023-02-22T11:48:01;93886.63;;;10.44;100.00
21588;BME280;10956;48.878;13.316;2023-02-22T12:21:23;93854.16;;;10.93;100.00
21588;BME280;10956;48.878;13.316;2023-02-22T12:23:55;93854.16;;;10.93;100.00
21588;BME280;10956;48.878;13.316;2023-02-22T12:26:29;93860.44;;;10.97;100.00
21588;BME280;10956;48.878;13.316;2023-02-22T12:29:06;93852.03;;;10.95;100.00
21588;BME280;10956;48.878;13.316;2023-02-22T12:31:51;93854.31;;;11.07;100.00
21588;BME280;10956;48.878;13.316;2023-02-22T12:34:30;93850.56;;;11.13;100.00
21588;BME280;10956;48.878;13.316;2023-02-22T12:37:08;93851.84;;;11.15;100.00
21588;BME280;10956;48.878;13.316;2023-02-22T12:39:51;93854.50;;;11.15;100.00
21588;BME280;10956;48.878;13.316;2023-02-22T12:42:32;93852.09;;;11.19;100.00
21588;BME280;10956;48.878;13.316;2023-02-22T12:45:07;93847.03;;;11.22;100.00
21588;BME280;10956;48.878;13.316;2023-02-22T12:47:46;93846.78;;;11.24;100.00
21588;BME280;10956;48.878;13.316;2023-02-22T12:50:20;93854.41;;;11.25;100.00
21588;BME280;10956;48.878;13.316;2023-02-22T12:58:56;93830.84;;;11.34;100.00
21588;BME280;10956;48.878;13.316;2023-02-22T13:01:29;93843.72;;;11.41;100.00
21588;BME280;10956;48.878;13.316;2023-02-22T13:03:57;93830.47;;;11.46;100.00
21588;BME280;10956;48.878;13.316;2023-02-22T13:15:03;93833.50;;;11.58;100.00
21588;BME280;10956;48.878;13.316;2023-02-22T13:18:07;93825.09;;;11.56;100.00
21588;BME280;10956;48.878;13.316;2023-02-22T13:20:46;93817.69;;;11.58;100.00
21588;BME280;10956;48.878;13.316;2023-02-22T13:26:40;93821.38;;;11.57;100.00
21588;BME280;10956;48.878;13.316;2023-02-22T13:28:48;93817.69;;;11.58;100.00
21588;BME280;10956;48.878;13.316;2023-02-22T13:34:10;93809.38;;;11.70;100.00
21588;BME280;10956;48.878;13.316;2023-02-22T13:44:58;93815.84;;;11.82;100.00
21588;BME280;10956;48.878;13.316;2023-02-22T13:52:53;93797.25;;;11.92;100.00
21588;BME280;10956;48.878;13.316;2023-02-22T13:55:24;93798.81;;;11.93;100.00
21588;BME280;10956;48.878;13.316;2023-02-22T13:58:00;93799.25;;;12.01;100.00
21588;BME280;10956;48.878;13.316;2023-02-22T14:16:25;93786.63;;;12.16;100.00
21588;BME280;10956;48.878;13.316;2023-02-22T14:19:19;93787.28;;;12.27;100.00
21588;BME280;10956;48.878;13.316;2023-02-22T14:21:58;93780.56;;;12.35;100.00
21588;BME280;10956;48.878;13.316;2023-02-22T14:24:39;93787.56;;;12.44;100.00
21588;BME280;10956;48.878;13.316;2023-02-22T14:27:09;93781.94;;;12.51;100.00
21588;BME280;10956;48.878;13.316;2023-02-22T14:29:35;93783.00;;;12.50;100.00
21588;BME280;10956;48.878;13.316;2023-02-22T14:32:09;93778.22;;;12.52;100.00
21588;BME280;10956;48.878;13.316;2023-02-22T14:37:13;93777.34;;;12.56;100.00
21588;BME280;10956;48.878;13.316;2023-02-22T14:39:47;93775.84;;;12.50;100.00
21588;BME280;10956;48.878;13.316;2023-02-22T14:42:31;93772.78;;;12.43;100.00
21588;BME280;10956;48.878;13.316;2023-02-22T14:45:22;93773.72;;;12.34;100.00
21588;BME280;10956;48.878;13.316;2023-02-22T14:47:54;93771.44;;;12.27;100.00
21588;BME280;10956;48.878;13.316;2023-02-22T14:50:42;93771.50;;;12.22;100.00
21588;BME280;10956;48.878;13.316;2023-02-22T14:53:16;93773.66;;;12.20;100.00
21588;BME280;10956;48.878;13.316;2023-02-22T14:55:48;93771.56;;;12.17;100.00
21588;BME280;10956;48.878;13.316;2023-02-22T14:58:22;93766.28;;;12.17;100.00
21588;BME280;10956;48.878;13.316;2023-02-22T15:00:51;93768.44;;;12.15;100.00
21588;BME280;10956;48.878;13.316;2023-02-22T15:03:28;93773.22;;;12.13;100.00
21588;BME280;10956;48.878;13.316;2023-02-22T15:06:13;93773.22;;;12.13;100.00
21588;BME280;10956;48.878;13.316;2023-02-22T15:08:40;93770.38;;;12.09;100.00
21588;BME280;10956;48.878;13.316;2023-02-22T15:11:19;93770.72;;;12.03;100.00
21588;BME280;10956;48.878;13.316;2023-02-22T15:13:53;93765.44;;;12.03;100.00
21588;BME280;10956;48.878;13.316;2023-02-22T15:16:20;93764.44;;;11.99;100.00
21588;BME280;10956;48.878;13.316;2023-02-22T15:18:49;93768.13;;;11.98;100.00